METAR (acronimo di METeorological Air Report) è un messaggio meteo emesso nella maggior parte dei casi in ambito aeroportuale

SVMI - Caracas Simón Bolívar International Airport, Venezuela
Ultimo Aggiornamento: Giovedì 04 Giugno 2020 08:00 CEST
Qualche Nuvola
Qualche Nuvola
 Wind from Sud-Est
Vento: Sud-Est 4 km/h
Temperatura: 24°C
Punto di Rugiada: 20°C
Umidità: 78%
Barometro: 1012 hPa
Nuvole: Qualche Nuvola
Visibilità: 10 km
Nuvole nel Dettaglio: Qualche Nuvola 488 m
2020/06/04 06:00 SVMI 040600Z 14002KT 9999 FEW016 24/20 Q1012
SKBO - Bogotá El Dorado International Airport, Colombia
Ultimo Aggiornamento: Giovedì 04 Giugno 2020 03:00 CEST
Parzialmente Nuvoloso
Parzialmente Nuvoloso
 Wind from varies
Vento: variabile 4 km/h
Temperatura: 12°C
Punto di Rugiada: 11°C
Umidità: 94%
Barometro: 1027.8 hPa
Nuvole: Parzialmente Nuvoloso
Visibilità: 10 km
2020/06/04 01:00 SKBO 040100Z VRB02KT 9999 NSC 12/11 A3035 NOSIG
TFFF - Fort-de-France Martinique Aimé Césaire International Airport, Martinique
Ultimo Aggiornamento: Giovedì 04 Giugno 2020 03:00 CEST
Temporale
Temporale
 Wind from Sud-Est
Vento: Sud-Est 19 km/h
Temperatura: 27°C
Heat Index: 31°C
Punto di Rugiada: 24°C
Umidità: 84%
Barometro: 1016 hPa
Nuvole: Temporale
Visibilità: 10 km
Nuvole nel Dettaglio: Parzialmente Nuvoloso 579 m
Parzialmente Nuvoloso 914 m
Prevalentemente Nuvoloso 1768 m
2020/06/04 01:00 TFFF 040100Z AUTO 13010KT 9999 SCT019/// SCT030/// BKN058/// ///TCU 27/24 Q1016 TEMPO 10015G25KT 4000 SHRA
 
SEQM - Quito Mariscal Sucre International Airport, Ecuador
Ultimo Aggiornamento: Giovedì 04 Giugno 2020 03:00 CEST
Nuvoloso
Nuvoloso
 Wind from Nord
Vento: Nord 6 km/h
Temperatura: 14°C
Punto di Rugiada: 13°C
Umidità: 94%
Barometro: 1028 hPa
Nuvole: Nuvoloso
Visibilità: 10 km
Nuvole nel Dettaglio: Parzialmente Nuvoloso 122 m
Nuvoloso 610 m
2020/06/04 01:00 SEQM 040100Z 35003KT 9999 SCT004 OVC020 14/13 Q1028 NOSIG RMK A3035
SEGS - Baltra Island, Galápagos, Ecuador
Ultimo Aggiornamento: Giovedì 04 Giugno 2020 00:00 CEST
Dati non Recenti
Parzialmente Nuvoloso
Parzialmente Nuvoloso
 Wind from Sud-Est
Vento: Sud-Est 28 km/h
Temperatura: 27°C
Heat Index: 29°C
Punto di Rugiada: 20°C
Umidità: 66%
Barometro: 1010 hPa
Nuvole: Parzialmente Nuvoloso
Visibilità: 10 km
Nuvole nel Dettaglio: Parzialmente Nuvoloso 610 m
2020/06/03 22:00 SEGS 032200Z 14015KT 9999 SCT020 27/20 Q1010 A2982
SPJC - Lima Jorge Chvez International Airport, Peru
Ultimo Aggiornamento: Giovedì 04 Giugno 2020 03:00 CEST
Nuvoloso
Nuvoloso
 Wind from Sud-Sud-Est
Vento: Sud-Sud-Est 13 km/h
Temperatura: 18°C
Punto di Rugiada: 15°C
Umidità: 83%
Barometro: 1015 hPa
Nuvole: Nuvoloso
Visibilità: 10 km
Nuvole nel Dettaglio: Nuvoloso 335 m
2020/06/04 01:00 SPJC 040100Z 16007KT 9999 OVC011 18/15 Q1015 NOSIG RMK PP000
 
SLLP - La Paz El Alto International Airport, Bolivia
Ultimo Aggiornamento: Giovedì 04 Giugno 2020 03:00 CEST
Prevalentemente Nuvoloso
Prevalentemente Nuvoloso
 Wind from Ovest-Sud-Ovest
Vento: Ovest-Sud-Ovest 15 km/h
Temperatura: 7°C
Wind Chill: 4°C
Punto di Rugiada: -8°C
Umidità: 34%
Barometro: 1035 hPa
Nuvole: Prevalentemente Nuvoloso
Visibilità: 10 km
Nuvole nel Dettaglio: Qualche Nuvola 457 m
Prevalentemente Nuvoloso 2134 m
Prevalentemente Nuvoloso 6096 m
2020/06/04 01:00 SLLP 040100Z 24008KT 9999 FEW015 BKN070 BKN200 07/M08 Q1035
SBBR - Brasilia International Airport, Brazil
Ultimo Aggiornamento: Giovedì 04 Giugno 2020 03:00 CEST
Sereno
Sereno
 Wind from Est-Nord-Est
Vento: Est-Nord-Est 6 km/h
Temperatura: 21°C
Punto di Rugiada: 17°C
Umidità: 78%
Barometro: 1022 hPa
Condizioni: Sereno
Visibilità: superiore a 10 km
2020/06/04 01:00 SBBR 040100Z 07003KT 010V120 CAVOK 21/17 Q1022
SCEL - Santiago Comodoro Arturo Merino Benitez International Airport, Chile
Ultimo Aggiornamento: Giovedì 04 Giugno 2020 03:00 CEST
Sereno
Sereno
 Wind from varies
Vento: variabile 4 km/h
Temperatura: 7°C
Punto di Rugiada: 5°C
Umidità: 87%
Barometro: 1020 hPa
Condizioni: Sereno
Visibilità: superiore a 10 km
2020/06/04 01:00 SCEL 040100Z VRB02KT CAVOK 07/05 Q1020 NOSIG
 
SCCI - Punta Arenas Presidente Carlos Ibañez del Campo International Airport, Chile
Ultimo Aggiornamento: Giovedì 04 Giugno 2020 03:00 CEST
Pioggia Leggera, Nuvoloso
Pioggia Leggera, Nuvoloso
 Wind from Nord-Ovest
Vento: Nord-Ovest 37 km/h
Temperatura: 5°C
Wind Chill: -1°C
Punto di Rugiada: 3°C
Umidità: 87%
Barometro: 979 hPa
Condizioni: Pioggia Leggera
Nuvole: Nuvoloso
Visibilità: 10 km
Nuvole nel Dettaglio: Qualche Nuvola 1097 m
Nuvoloso 1372 m
2020/06/04 01:00 SCCI 040100Z 32020KT 9999 -RA FEW036 OVC045 05/03 Q0979 NOSIG
SCIP - Easter Island Mataveri International Airport, Chile
Ultimo Aggiornamento: Giovedì 04 Giugno 2020 03:00 CEST
Prevalentemente Nuvoloso
Prevalentemente Nuvoloso
 Wind from Est-Sud-Est
Vento: Est-Sud-Est 7 km/h
Temperatura: 19°C
Punto di Rugiada: 17°C
Umidità: 88%
Barometro: 1025 hPa
Nuvole: Prevalentemente Nuvoloso
Visibilità: 10 km
Nuvole nel Dettaglio: Qualche Nuvola 762 m
Prevalentemente Nuvoloso 1524 m
2020/06/04 01:00 SCIP 040100Z 12004KT 9999 FEW025 BKN050 19/17 Q1025 NOSIG
SAEZ - Buenos Aires Ministro Pistarini International Airport, Argentina
Ultimo Aggiornamento: Giovedì 04 Giugno 2020 03:00 CEST
Parzialmente Nuvoloso
Parzialmente Nuvoloso
 Wind from Est-Sud-Est
Vento: Est-Sud-Est 9 km/h
Temperatura: 9°C
Wind Chill: 7°C
Punto di Rugiada: 8°C
Umidità: 94%
Barometro: 1026 hPa
Nuvole: Parzialmente Nuvoloso
Visibilità: 7 km
2020/06/04 01:00 SAEZ 040100Z 12005KT 7000 NSC 09/08 Q1026 NOSIG
 
SAZM - Mar del Plata Astor Piazzolla International Airport, Argentina
Ultimo Aggiornamento: Giovedì 04 Giugno 2020 03:00 CEST
Qualche Nuvola
Qualche Nuvola
 Wind from Ovest
Vento: Ovest 6 km/h
Temperatura: 3°C
Punto di Rugiada: 2°C
Umidità: 93%
Barometro: 1027 hPa
Nuvole: Qualche Nuvola
Visibilità: 7 km
Nuvole nel Dettaglio: Qualche Nuvola 701 m
2020/06/04 01:00 SAZM 040100Z 27003KT 7000 FEW023 03/02 Q1027
SAWH - Ushuaia-Malvinas Argentinas International Airport, Argentina
Ultimo Aggiornamento: Giovedì 04 Giugno 2020 03:00 CEST
Qualche Nuvola
Qualche Nuvola
 Wind from Ovest
Vento: Ovest 15 km/h
Temperatura: 6°C
Wind Chill: 3°C
Punto di Rugiada: -1°C
Umidità: 61%
Barometro: 972 hPa
Nuvole: Qualche Nuvola
Visibilità: 10 km
Nuvole nel Dettaglio: Qualche Nuvola 1067 m
2020/06/04 01:00 SAWH 040100Z 27008KT 9999 FEW035 06/M01 Q0972
EGYP - Stanley RAF Mount Pleasant, Falkland Islands
Ultimo Aggiornamento: Giovedì 04 Giugno 2020 02:50 CEST
Nuvoloso
Nuvoloso
 Wind from Nord-Ovest
Vento: Nord-Ovest 54 km/h, Raffica: 74 km/h
Temperatura: 7°C
Wind Chill: 2°C
Punto di Rugiada: 3°C
Umidità: 76%
Barometro: 992 hPa
Nuvole: Nuvoloso
Visibilità: 10 km
Nuvole nel Dettaglio: Qualche Nuvola 762 m
Nuvoloso 2591 m
2020/06/04 00:50 EGYP 040050Z 31029G40KT 9999 FEW025 OVC085 07/03 Q0992